Time;durP1;ratioP1;P1;durP2;ratioP2;P2;SDS_P1;SDS_P2;PMS_P1;PMS_P2;Temp;Humidity;BMP_temperature;BMP_pressure;BME280_temperature;BME280_humidity;BME280_pressure;Samples;Min_cycle;Max_cycle;Signal;HPM_P1;HPM_P2
2022/10/03 00:00:44;;;;;;;;;;;;;;;;;;5024420;28;19953;-36
2022/10/03 00:03:09;;;;;;;;;;;;;;;;;;5024973;28;19928;-35
2022/10/03 00:05:35;;;;;;;;;;;;;;;;;;5025313;28;19925;-34
2022/10/03 00:08:00;;;;;;;;;;;;;;;;;;5028471;28;19919;-35
2022/10/03 00:10:25;;;;;;;;;;;;;;;;;;5025041;28;20095;-35
2022/10/03 00:12:50;;;;;;;;;;;;;;;;;;5022608;28;19917;-36
2022/10/03 00:15:15;;;;;;;;;;;;;;;;;;5024229;28;19921;-35
2022/10/03 00:17:40;;;;;;;;;;;;;;;;;;5026422;28;19921;-35
2022/10/03 00:20:06;;;;;;;;;;;;;;;;;;5023113;28;19925;-36
2022/10/03 00:22:31;;;;;;;;;;;;;;;;;;5028634;28;20455;-35
2022/10/03 00:24:56;;;;;;;;;;;;;;;;;;5022009;28;19928;-35
2022/10/03 00:27:21;;;;;;;;;;;;;;;;;;5025740;28;19913;-35
2022/10/03 00:29:46;;;;;;;;;;;;;;;;;;5025905;28;19913;-35
2022/10/03 00:32:11;;;;;;;;;;;;;;;;;;5024515;28;19923;-35
2022/10/03 00:34:37;;;;;;;;;;;;;;;;;;5016019;28;20016;-36
2022/10/03 00:37:02;;;;;;;;;;;;;;;;;;5020963;28;19936;-35
2022/10/03 00:39:27;;;;;;;;;;;;;;;;;;5024389;28;19975;-35
2022/10/03 00:41:52;;;;;;;;;;;;;;;;;;5019732;28;19921;-34
2022/10/03 00:44:17;;;;;;;;;;;;;;;;;;5022646;28;19913;-35
2022/10/03 00:46:43;;;;;;;;;;;;;;;;;;5019512;28;20024;-35
2022/10/03 00:49:08;;;;;;;;;;;;;;;;;;5020397;28;20004;-35
2022/10/03 00:51:33;;;;;;;;;;;;;;;;;;5020817;28;20282;-35
2022/10/03 00:53:58;;;;;;;;;;;;;;;;;;5020209;28;19913;-34
2022/10/03 00:56:23;;;;;;;;;;;;;;;;;;5022162;28;20041;-35
2022/10/03 00:58:49;;;;;;;;;;;;;;;;;;5021995;28;19914;-35
2022/10/03 01:01:14;;;;;;;;;;;;;;;;;;5021725;28;19916;-36
2022/10/03 01:03:39;;;;;;;;;;;;;;;;;;5019934;28;19983;-34
2022/10/03 01:06:04;;;;;;;;;;;;;;;;;;5022361;28;19963;-34
2022/10/03 01:08:30;;;;;;;;;;;;;;;;;;5021904;28;20453;-35
2022/10/03 01:10:55;;;;;;;;;;;;;;;;;;5020443;28;20330;-35
2022/10/03 01:13:20;;;;;;;;;;;;;;;;;;5018022;28;19914;-35
2022/10/03 01:15:46;;;;;;;;;;;;;;;;;;5025079;28;19920;-35
2022/10/03 01:18:11;;;;;;;;;;;;;;;;;;5022988;28;20458;-35
2022/10/03 01:20:36;;;;;;;;;;;;;;;;;;5023418;28;19932;-35
2022/10/03 01:23:01;;;;;;;;;;;;;;;;;;5022970;28;19921;-35
2022/10/03 01:25:27;;;;;;;;;;;;;;;;;;5022481;28;19921;-35
2022/10/03 01:30:35;;;;;;;;;;;;;;;;;;5023896;28;20002;-34
2022/10/03 01:33:01;;;;;;;;;;;;;;;;;;5022074;28;20345;-36
2022/10/03 01:35:27;;;;;;;;;;;;;;;;;;5023564;28;19978;-34
2022/10/03 01:37:52;;;;;;;;;;;;;;;;;;5028622;28;19932;-35
2022/10/03 01:40:17;;;;;;;;;;;;;;;;;;5020745;28;19963;-35
2022/10/03 01:42:42;;;;;;;;;;;;;;;;;;5025578;28;19979;-35
2022/10/03 01:45:11;;;;;;;;;;;;;;;;;;5021501;28;19916;-35
2022/10/03 01:47:37;;;;;;;;;;;;;;;;;;5024467;28;19913;-35
2022/10/03 01:50:02;;;;;;;;;;;;;;;;;;5028209;28;19925;-33
2022/10/03 01:52:27;;;;;;;;;;;;;;;;;;5024873;28;19913;-33
2022/10/03 01:54:52;;;;;;;;;;;;;;;;;;5021248;28;19923;-33
2022/10/03 01:57:17;;;;;;;;;;;;;;;;;;5024165;28;19913;-35
2022/10/03 01:59:44;;;;;;;;;;;;;;;;;;5026999;28;19928;-35
2022/10/03 02:02:10;;;;;;;;;;;;;;;;;;5029753;28;20363;-34
2022/10/03 02:04:35;;;;;;;;;;;;;;;;;;5022315;28;19924;-35
2022/10/03 02:07:00;;;;;;;;;;;;;;;;;;5029497;28;19931;-35
2022/10/03 02:09:25;;;;;;;;;;;;;;;;;;5025977;28;19975;-35
2022/10/03 02:11:50;;;;;;;;;;;;;;;;;;5025925;28;21284;-34
2022/10/03 02:14:16;;;;;;;;;;;;;;;;;;5026315;28;20383;-35
2022/10/03 02:16:41;;;;;;;;;;;;;;;;;;5024139;28;19921;-35
2022/10/03 02:19:06;;;;;;;;;;;;;;;;;;5022791;28;20382;-36
2022/10/03 02:21:31;;;;;;;;;;;;;;;;;;5028590;28;19913;-35
2022/10/03 02:23:56;;;;;;;;;;;;;;;;;;5027534;28;19913;-35
2022/10/03 02:26:22;;;;;;;;;;;;;;;;;;5024144;28;19913;-35
2022/10/03 02:28:47;;;;;;;;;;;;;;;;;;5024695;28;20363;-35
2022/10/03 02:31:12;;;;;;;;;;;;;;;;;;5026323;28;20119;-35
2022/10/03 02:33:38;;;;;;;;;;;;;;;;;;5022132;28;20309;-35
2022/10/03 02:36:03;;;;;;;;;;;;;;;;;;5027696;28;19920;-34
2022/10/03 02:38:28;;;;;;;;;;;;;;;;;;5023202;28;20287;-35
2022/10/03 02:40:54;;;;;;;;;;;;;;;;;;5023381;28;20036;-35
2022/10/03 02:43:20;;;;;;;;;;;;;;;;;;5024050;28;19916;-35
2022/10/03 02:45:45;;;;;;;;;;;;;;;;;;5020334;28;19944;-36
2022/10/03 02:48:11;;;;;;;;;;;;;;;;;;5022816;28;19991;-36
2022/10/03 02:50:36;;;;;;;;;;;;;;;;;;5027867;28;19956;-35
2022/10/03 02:53:01;;;;;;;;;;;;;;;;;;5027744;28;19963;-35
2022/10/03 02:55:27;;;;;;;;;;;;;;;;;;5029998;28;19917;-35
2022/10/03 02:57:52;;;;;;;;;;;;;;;;;;5026678;28;19927;-36
2022/10/03 03:00:17;;;;;;;;;;;;;;;;;;5024512;28;20378;-36
2022/10/03 03:02:42;;;;;;;;;;;;;;;;;;5023891;28;19921;-35
2022/10/03 03:05:07;;;;;;;;;;;;;;;;;;5027489;28;19917;-35
2022/10/03 03:07:35;;;;;;;;;;;;;;;;;;5025610;28;20404;-35
2022/10/03 03:10:01;;;;;;;;;;;;;;;;;;5022426;28;20026;-35
2022/10/03 03:12:26;;;;;;;;;;;;;;;;;;5024619;28;19970;-35
2022/10/03 03:14:51;;;;;;;;;;;;;;;;;;5028214;28;20113;-34
2022/10/03 03:17:16;;;;;;;;;;;;;;;;;;5024057;28;20395;-35
2022/10/03 03:19:41;;;;;;;;;;;;;;;;;;5024580;28;19924;-34
2022/10/03 03:22:08;;;;;;;;;;;;;;;;;;5025791;28;20318;-35
2022/10/03 03:24:34;;;;;;;;;;;;;;;;;;5023195;28;19922;-35
2022/10/03 03:26:59;;;;;;;;;;;;;;;;;;5020475;28;19913;-35
2022/10/03 03:29:24;;;;;;;;;;;;;;;;;;5026767;28;19913;-35
2022/10/03 03:31:49;;;;;;;;;;;;;;;;;;5024668;28;20011;-35
2022/10/03 03:34:14;;;;;;;;;;;;;;;;;;5027123;28;19913;-36
2022/10/03 03:36:40;;;;;;;;;;;;;;;;;;5022034;28;19913;-35
2022/10/03 03:39:05;;;;;;;;;;;;;;;;;;5025406;28;19924;-35
2022/10/03 03:41:30;;;;;;;;;;;;;;;;;;5023598;28;20062;-35
2022/10/03 03:43:56;;;;;;;;;;;;;;;;;;5025162;28;20023;-36
2022/10/03 03:46:21;;;;;;;;;;;;;;;;;;5023119;28;19917;-35
2022/10/03 03:48:47;;;;;;;;;;;;;;;;;;5024335;28;19955;-36
2022/10/03 03:51:13;;;;;;;;;;;;;;;;;;5026134;28;20427;-36
2022/10/03 03:53:38;;;;;;;;;;;;;;;;;;5022498;28;19913;-35
2022/10/03 03:56:04;;;;;;;;;;;;;;;;;;5024336;28;19913;-35
2022/10/03 03:58:32;;;;;;;;;;;;;;;;;;5023898;28;19945;-35
2022/10/03 04:00:57;;;;;;;;;;;;;;;;;;5025486;28;19925;-35
2022/10/03 04:03:22;;;;;;;;;;;;;;;;;;5020719;28;20414;-35
2022/10/03 04:05:47;;;;;;;;;;;;;;;;;;5023321;28;19913;-36
2022/10/03 04:08:12;;;;;;;;;;;;;;;;;;5026887;28;19917;-35
2022/10/03 04:10:38;;;;;;;;;;;;;;;;;;5026231;28;19913;-35
2022/10/03 04:13:03;;;;;;;;;;;;;;;;;;5022681;28;20286;-36
2022/10/03 04:15:28;;;;;;;;;;;;;;;;;;5024982;28;19922;-35
2022/10/03 04:20:37;;;;;;;;;;;;;;;;;;5021614;28;20323;-36
2022/10/03 04:23:02;;;;;;;;;;;;;;;;;;5022459;28;19917;-35
2022/10/03 04:25:27;;;;;;;;;;;;;;;;;;5023995;28;19914;-36
2022/10/03 04:27:53;;;;;;;;;;;;;;;;;;5024633;28;19917;-36
2022/10/03 04:30:18;;;;;;;;;;;;;;;;;;5024333;28;19960;-35
2022/10/03 04:32:44;;;;;;;;;;;;;;;;;;5025428;28;19924;-35
2022/10/03 04:35:09;;;;;;;;;;;;;;;;;;5022116;28;19932;-35
2022/10/03 04:37:34;;;;;;;;;;;;;;;;;;5022215;28;19924;-35
2022/10/03 04:40:00;;;;;;;;;;;;;;;;;;5022691;28;19990;-35
2022/10/03 04:42:25;;;;;;;;;;;;;;;;;;5022791;28;20279;-36
2022/10/03 04:44:51;;;;;;;;;;;;;;;;;;5021839;28;20101;-35
2022/10/03 04:47:16;;;;;;;;;;;;;;;;;;5026253;28;19917;-35
2022/10/03 04:49:41;;;;;;;;;;;;;;;;;;5025481;28;19917;-35
2022/10/03 04:52:06;;;;;;;;;;;;;;;;;;5023775;28;20014;-35
2022/10/03 04:54:31;;;;;;;;;;;;;;;;;;5022982;28;19913;-35
2022/10/03 04:56:56;;;;;;;;;;;;;;;;;;5023935;28;19921;-35
2022/10/03 04:59:22;;;;;;;;;;;;;;;;;;5020292;28;20279;-35
2022/10/03 05:01:47;;;;;;;;;;;;;;;;;;5023054;28;19917;-35
2022/10/03 05:04:12;;;;;;;;;;;;;;;;;;5021416;28;19996;-36
2022/10/03 05:06:37;;;;;;;;;;;;;;;;;;5022103;28;20007;-35
2022/10/03 05:09:03;;;;;;;;;;;;;;;;;;5021844;28;19913;-35
2022/10/03 05:11:28;;;;;;;;;;;;;;;;;;5018755;28;19913;-35
2022/10/03 05:13:53;;;;;;;;;;;;;;;;;;5025004;28;20400;-35
2022/10/03 05:16:20;;;;;;;;;;;;;;;;;;5021347;28;19924;-35
2022/10/03 05:18:45;;;;;;;;;;;;;;;;;;5025290;28;19972;-36
2022/10/03 05:21:14;;;;;;;;;;;;;;;;;;5017885;28;21345;-35
2022/10/03 05:23:39;;;;;;;;;;;;;;;;;;5025774;28;19913;-35
2022/10/03 05:26:05;;;;;;;;;;;;;;;;;;5021573;28;19919;-35
2022/10/03 05:28:30;;;;;;;;;;;;;;;;;;5024434;28;19919;-35
2022/10/03 05:30:55;;;;;;;;;;;;;;;;;;5023047;28;20006;-35
2022/10/03 05:33:21;;;;;;;;;;;;;;;;;;5047648;22;20070;-35
2022/10/03 05:35:46;;;;;;;;;;;;;;;;;;5025872;28;19998;-36
2022/10/03 05:38:12;;;;;;;;;;;;;;;;;;5024098;28;19990;-35
2022/10/03 05:40:37;;;;;;;;;;;;;;;;;;5023358;28;19917;-35
2022/10/03 05:43:02;;;;;;;;;;;;;;;;;;5032053;28;20278;-35
2022/10/03 05:45:29;;;;;;;;;;;;;;;;;;5041463;28;19921;-35
2022/10/03 05:47:55;;;;;;;;;;;;;;;;;;5044174;28;19919;-36
2022/10/03 05:50:21;;;;;;;;;;;;;;;;;;5040153;28;19948;-35
2022/10/03 05:52:47;;;;;;;;;;;;;;;;;;5044746;28;20367;-36
2022/10/03 05:55:12;;;;;;;;;;;;;;;;;;5046031;28;20174;-36
2022/10/03 05:57:38;;;;;;;;;;;;;;;;;;5046985;28;19913;-35
2022/10/03 06:00:05;;;;;;;;;;;;;;;;;;5042381;28;19924;-35
2022/10/03 06:02:31;;;;;;;;;;;;;;;;;;5045177;28;20414;-35
2022/10/03 06:04:57;;;;;;;;;;;;;;;;;;5045710;28;19917;-35
2022/10/03 06:07:23;;;;;;;;;;;;;;;;;;5041792;28;20203;-35
2022/10/03 06:09:48;;;;;;;;;;;;;;;;;;5043126;28;19979;-35
2022/10/03 06:12:13;;;;;;;;;;;;;;;;;;5043243;28;19958;-35
2022/10/03 06:14:38;;;;;;;;;;;;;;;;;;5045144;28;20286;-35
2022/10/03 06:17:03;;;;;;;;;;;;;;;;;;5042788;28;20055;-35
2022/10/03 06:19:28;;;;;;;;;;;;;;;;;;5044092;28;19924;-35
2022/10/03 06:21:54;;;;;;;;;;;;;;;;;;5043513;28;20358;-35
2022/10/03 06:24:19;;;;;;;;;;;;;;;;;;5048303;28;19952;-33
2022/10/03 06:26:44;;;;;;;;;;;;;;;;;;5048122;28;19920;-33
2022/10/03 06:29:09;;;;;;;;;;;;;;;;;;5047586;28;19917;-33
2022/10/03 06:31:35;;;;;;;;;;;;;;;;;;5044795;28;19913;-33
2022/10/03 06:34:00;;;;;;;;;;;;;;;;;;5045625;28;20222;-33
2022/10/03 06:36:25;;;;;;;;;;;;;;;;;;5045984;28;19957;-33
2022/10/03 06:38:50;;;;;;;;;;;;;;;;;;5045897;28;19965;-32
2022/10/03 06:41:16;;;;;;;;;;;;;;;;;;5044918;28;19931;-32
2022/10/03 06:43:41;;;;;;;;;;;;;;;;;;5045828;28;19916;-33
2022/10/03 06:46:06;;;;;;;;;;;;;;;;;;5044502;28;20400;-33
2022/10/03 06:48:32;;;;;;;;;;;;;;;;;;5046948;28;19920;-33
2022/10/03 06:50:58;;;;;;;;;;;;;;;;;;5047012;28;19917;-33
2022/10/03 06:53:24;;;;;;;;;;;;;;;;;;5046000;28;19920;-32
2022/10/03 06:55:49;;;;;;;;;;;;;;;;;;5041928;28;20420;-33
2022/10/03 06:58:14;;;;;;;;;;;;;;;;;;5046543;28;19913;-33
2022/10/03 07:00:40;;;;;;;;;;;;;;;;;;5043222;28;20203;-33
2022/10/03 07:03:05;;;;;;;;;;;;;;;;;;5045001;28;19916;-33
2022/10/03 07:05:34;;;;;;;;;;;;;;;;;;5046219;28;19952;-33
2022/10/03 07:08:01;;;;;;;;;;;;;;;;;;5048419;28;19917;-33
2022/10/03 07:10:26;;;;;;;;;;;;;;;;;;5044326;28;20435;-33
2022/10/03 07:12:52;;;;;;;;;;;;;;;;;;5046008;28;19917;-33
2022/10/03 07:15:18;;;;;;;;;;;;;;;;;;5043845;28;19952;-33
2022/10/03 07:17:43;;;;;;;;;;;;;;;;;;5044158;28;19959;-33
2022/10/03 07:20:08;;;;;;;;;;;;;;;;;;5043969;28;19925;-33
2022/10/03 07:22:33;;;;;;;;;;;;;;;;;;5044100;28;19951;-33
2022/10/03 07:24:59;;;;;;;;;;;;;;;;;;5048001;28;19967;-33
2022/10/03 07:27:24;;;;;;;;;;;;;;;;;;5049416;28;19936;-33
2022/10/03 07:29:49;;;;;;;;;;;;;;;;;;5044321;28;19923;-33
2022/10/03 07:32:14;;;;;;;;;;;;;;;;;;5047323;28;19913;-33
2022/10/03 07:34:39;;;;;;;;;;;;;;;;;;5047315;28;20024;-33
2022/10/03 07:39:48;;;;;;;;;;;;;;;;;;5046473;28;20297;-33
2022/10/03 07:42:13;;;;;;;;;;;;;;;;;;5045161;28;19913;-33
2022/10/03 07:44:41;;;;;;;;;;;;;;;;;;5045932;28;19912;-33
2022/10/03 07:47:08;;;;;;;;;;;;;;;;;;5045869;28;19995;-33
2022/10/03 07:49:35;;;;;;;;;;;;;;;;;;5049146;28;19973;-33
2022/10/03 07:52:00;;;;;;;;;;;;;;;;;;5045357;28;19995;-33
2022/10/03 07:54:25;;;;;;;;;;;;;;;;;;5045810;28;20007;-33
2022/10/03 07:56:50;;;;;;;;;;;;;;;;;;5044567;28;19940;-33
2022/10/03 07:59:15;;;;;;;;;;;;;;;;;;5046347;28;19913;-33
2022/10/03 08:01:41;;;;;;;;;;;;;;;;;;5043998;28;19996;-33
2022/10/03 08:04:06;;;;;;;;;;;;;;;;;;5046981;28;19921;-33
2022/10/03 08:06:32;;;;;;;;;;;;;;;;;;5047492;28;20436;-33
2022/10/03 08:08:57;;;;;;;;;;;;;;;;;;5047656;28;20026;-33
2022/10/03 08:11:24;;;;;;;;;;;;;;;;;;5043993;28;20185;-33
2022/10/03 08:13:49;;;;;;;;;;;;;;;;;;5047781;28;19919;-33
2022/10/03 08:16:15;;;;;;;;;;;;;;;;;;5046531;28;19913;-33
2022/10/03 08:18:40;;;;;;;;;;;;;;;;;;5046657;28;19913;-33
2022/10/03 08:21:05;;;;;;;;;;;;;;;;;;5044660;28;19955;-33
2022/10/03 08:23:31;;;;;;;;;;;;;;;;;;5041796;28;20342;-33
2022/10/03 08:25:56;;;;;;;;;;;;;;;;;;5047079;28;19923;-33
2022/10/03 08:28:21;;;;;;;;;;;;;;;;;;5046995;28;19916;-33
2022/10/03 08:30:46;;;;;;;;;;;;;;;;;;5043926;28;20374;-33
2022/10/03 08:33:11;;;;;;;;;;;;;;;;;;5046727;28;19944;-33
2022/10/03 08:35:37;;;;;;;;;;;;;;;;;;5045403;28;20543;-33
2022/10/03 08:38:02;;;;;;;;;;;;;;;;;;5046466;28;20663;-33
2022/10/03 08:40:28;;;;;;;;;;;;;;;;;;5045176;28;19920;-33
2022/10/03 08:42:53;;;;;;;;;;;;;;;;;;5045008;28;19917;-33
2022/10/03 08:45:18;;;;;;;;;;;;;;;;;;5046598;28;19920;-33
2022/10/03 08:47:45;;;;;;;;;;;;;;;;;;5046234;28;19913;-33
2022/10/03 08:50:10;;;;;;;;;;;;;;;;;;5042337;28;19951;-33
2022/10/03 08:52:35;;;;;;;;;;;;;;;;;;5041443;28;20350;-33
2022/10/03 08:55:01;;;;;;;;;;;;;;;;;;5042693;28;19925;-33
2022/10/03 08:57:26;;;;;;;;;;;;;;;;;;5042976;28;19913;-33
2022/10/03 08:59:51;;;;;;;;;;;;;;;;;;5041166;28;19921;-33
2022/10/03 09:02:17;;;;;;;;;;;;;;;;;;5040931;28;20003;-33
2022/10/03 09:04:43;;;;;;;;;;;;;;;;;;5040364;28;20015;-33
2022/10/03 09:07:09;;;;;;;;;;;;;;;;;;5044067;28;20357;-33
2022/10/03 09:09:34;;;;;;;;;;;;;;;;;;5042420;28;19962;-33
2022/10/03 09:12:00;;;;;;;;;;;;;;;;;;5045867;28;19912;-33
2022/10/03 09:14:26;;;;;;;;;;;;;;;;;;5046603;28;20291;-33
2022/10/03 09:16:51;;;;;;;;;;;;;;;;;;5042663;28;19920;-33
2022/10/03 09:19:16;;;;;;;;;;;;;;;;;;5043876;28;19921;-33
2022/10/03 09:21:41;;;;;;;;;;;;;;;;;;5043864;28;19913;-33
2022/10/03 09:24:06;;;;;;;;;;;;;;;;;;5043890;28;19971;-33
2022/10/03 09:26:32;;;;;;;;;;;;;;;;;;5039092;28;19963;-33
2022/10/03 09:28:57;;;;;;;;;;;;;;;;;;5040614;28;19921;-33
2022/10/03 09:31:22;;;;;;;;;;;;;;;;;;5041366;28;19917;-33
2022/10/03 09:33:48;;;;;;;;;;;;;;;;;;5041138;28;20332;-33
2022/10/03 09:36:13;;;;;;;;;;;;;;;;;;5043303;28;20396;-33
2022/10/03 09:38:38;;;;;;;;;;;;;;;;;;5044236;28;20381;-33
2022/10/03 09:41:03;;;;;;;;;;;;;;;;;;5045915;28;20035;-33
2022/10/03 09:43:28;;;;;;;;;;;;;;;;;;5044319;28;19946;-33
2022/10/03 09:45:53;;;;;;;;;;;;;;;;;;5043946;28;19920;-33
2022/10/03 09:48:18;;;;;;;;;;;;;;;;;;5038163;28;19919;-34
2022/10/03 09:50:45;;;;;;;;;;;;;;;;;;5035927;28;20010;-33
2022/10/03 09:53:11;;;;;;;;;;;;;;;;;;5038513;28;19959;-33
2022/10/03 09:55:36;;;;;;;;;;;;;;;;;;5040497;28;19943;-33
2022/10/03 09:58:01;;;;;;;;;;;;;;;;;;5042844;28;19921;-33
2022/10/03 10:00:26;;;;;;;;;;;;;;;;;;5038189;28;20320;-33
2022/10/03 10:02:51;;;;;;;;;;;;;;;;;;5044894;28;19917;-33
2022/10/03 10:05:17;;;;;;;;;;;;;;;;;;5044836;28;20003;-33
2022/10/03 10:07:42;;;;;;;;;;;;;;;;;;5041010;28;19917;-33
2022/10/03 10:10:07;;;;;;;;;;;;;;;;;;5044115;28;19920;-33
2022/10/03 10:12:32;;;;;;;;;;;;;;;;;;5045467;28;20584;-33
2022/10/03 10:14:57;;;;;;;;;;;;;;;;;;5043007;28;19992;-33
2022/10/03 10:17:22;;;;;;;;;;;;;;;;;;5046199;28;19921;-33
2022/10/03 10:19:47;;;;;;;;;;;;;;;;;;5045975;28;19963;-33
2022/10/03 10:22:13;;;;;;;;;;;;;;;;;;5042336;28;20365;-33
2022/10/03 10:24:38;;;;;;;;;;;;;;;;;;5046170;28;21269;-34
2022/10/03 10:27:03;;;;;;;;;;;;;;;;;;5041565;28;20388;-34
2022/10/03 10:29:28;;;;;;;;;;;;;;;;;;5044796;28;20341;-34
2022/10/03 10:31:54;;;;;;;;;;;;;;;;;;5045657;28;20038;-34
2022/10/03 10:34:19;;;;;;;;;;;;;;;;;;5046691;28;19927;-33
2022/10/03 10:36:44;;;;;;;;;;;;;;;;;;5047997;28;20287;-34
2022/10/03 10:39:09;;;;;;;;;;;;;;;;;;5044305;28;19917;-33
2022/10/03 10:41:35;;;;;;;;;;;;;;;;;;5045599;28;19921;-33
2022/10/03 10:44:01;;;;;;;;;;;;;;;;;;5046683;28;19916;-33
2022/10/03 10:46:26;;;;;;;;;;;;;;;;;;5043133;28;19995;-33
2022/10/03 10:48:51;;;;;;;;;;;;;;;;;;5045446;28;20537;-33
2022/10/03 10:51:16;;;;;;;;;;;;;;;;;;5043898;28;20520;-33
2022/10/03 10:53:41;;;;;;;;;;;;;;;;;;5047830;28;19917;-33
2022/10/03 10:56:06;;;;;;;;;;;;;;;;;;5043977;28;19921;-33
2022/10/03 10:58:32;;;;;;;;;;;;;;;;;;5046743;28;20004;-33
2022/10/03 11:00:57;;;;;;;;;;;;;;;;;;5044832;28;20389;-33
2022/10/03 11:03:22;;;;;;;;;;;;;;;;;;5043011;28;20237;-33
2022/10/03 11:05:47;;;;;;;;;;;;;;;;;;5041485;28;19921;-33
2022/10/03 11:08:12;;;;;;;;;;;;;;;;;;5044433;28;19978;-33
2022/10/03 11:10:37;;;;;;;;;;;;;;;;;;5055825;28;19917;-33
2022/10/03 11:13:03;;;;;;;;;;;;;;;;;;5045242;28;20433;-33
2022/10/03 11:15:29;;;;;;;;;;;;;;;;;;5046319;28;19919;-33
2022/10/03 11:17:54;;;;;;;;;;;;;;;;;;5040969;28;20396;-33
2022/10/03 11:20:20;;;;;;;;;;;;;;;;;;5039234;28;19920;-34
2022/10/03 11:22:45;;;;;;;;;;;;;;;;;;5047090;28;19924;-33
2022/10/03 11:25:11;;;;;;;;;;;;;;;;;;5049736;28;19923;-35
2022/10/03 11:27:36;;;;;;;;;;;;;;;;;;5041375;28;20422;-34
2022/10/03 11:30:02;;;;;;;;;;;;;;;;;;5042843;28;19931;-34
2022/10/03 11:32:27;;;;;;;;;;;;;;;;;;5043396;28;19954;-34
2022/10/03 11:34:52;;;;;;;;;;;;;;;;;;5043124;28;19917;-33
2022/10/03 11:37:18;;;;;;;;;;;;;;;;;;5044607;28;19923;-33
2022/10/03 11:39:43;;;;;;;;;;;;;;;;;;5041788;28;20008;-34
2022/10/03 11:42:09;;;;;;;;;;;;;;;;;;5040829;28;20011;-34
2022/10/03 11:44:34;;;;;;;;;;;;;;;;;;5039430;28;20492;-34
2022/10/03 11:46:59;;;;;;;;;;;;;;;;;;5044868;28;19989;-33
2022/10/03 11:49:24;;;;;;;;;;;;;;;;;;5042894;28;19927;-33
2022/10/03 11:51:49;;;;;;;;;;;;;;;;;;5045859;28;19917;-33
2022/10/03 11:54:16;;;;;;;;;;;;;;;;;;5043246;28;19921;-34
2022/10/03 11:56:42;;;;;;;;;;;;;;;;;;5043117;28;20046;-34
2022/10/03 11:59:07;;;;;;;;;;;;;;;;;;5042661;28;19917;-34
2022/10/03 12:01:32;;;;;;;;;;;;;;;;;;5044955;28;19936;-33
2022/10/03 12:03:57;;;;;;;;;;;;;;;;;;5043505;28;19917;-34
2022/10/03 12:09:06;;;;;;;;;;;;;;;;;;5043087;28;20004;-34
2022/10/03 12:11:32;;;;;;;;;;;;;;;;;;5042145;28;19942;-34
2022/10/03 12:13:57;;;;;;;;;;;;;;;;;;5044965;28;20274;-33
2022/10/03 12:16:22;;;;;;;;;;;;;;;;;;5043025;28;19921;-34
2022/10/03 12:18:47;;;;;;;;;;;;;;;;;;5042725;28;19967;-33
2022/10/03 12:21:13;;;;;;;;;;;;;;;;;;5039270;28;20086;-34
2022/10/03 12:23:38;;;;;;;;;;;;;;;;;;5042652;28;19923;-34
2022/10/03 12:26:03;;;;;;;;;;;;;;;;;;5037986;28;20314;-34
2022/10/03 12:28:29;;;;;;;;;;;;;;;;;;5041760;28;19950;-34
2022/10/03 12:30:54;;;;;;;;;;;;;;;;;;5042817;28;20456;-34
2022/10/03 12:33:20;;;;;;;;;;;;;;;;;;5042248;28;19920;-34
2022/10/03 12:35:45;;;;;;;;;;;;;;;;;;5041077;28;19920;-34
2022/10/03 12:38:10;;;;;;;;;;;;;;;;;;5042427;28;19920;-33
2022/10/03 12:40:36;;;;;;;;;;;;;;;;;;5044440;28;20163;-34
2022/10/03 12:43:01;;;;;;;;;;;;;;;;;;5042723;28;19921;-34
2022/10/03 12:45:26;;;;;;;;;;;;;;;;;;5041447;28;19917;-34
2022/10/03 12:47:52;;;;;;;;;;;;;;;;;;5042432;28;19999;-33
2022/10/03 12:50:17;;;;;;;;;;;;;;;;;;5038712;28;19924;-34
2022/10/03 12:52:43;;;;;;;;;;;;;;;;;;5044113;28;20054;-34
2022/10/03 12:55:08;;;;;;;;;;;;;;;;;;5044771;28;20147;-34
2022/10/03 12:57:33;;;;;;;;;;;;;;;;;;5042804;28;19956;-33
2022/10/03 12:59:58;;;;;;;;;;;;;;;;;;5044804;28;20301;-34
2022/10/03 13:02:23;;;;;;;;;;;;;;;;;;5043998;28;19925;-33
2022/10/03 13:04:51;;;;;;;;;;;;;;;;;;5044108;28;19916;-34
2022/10/03 13:07:16;;;;;;;;;;;;;;;;;;5042417;28;20480;-34
2022/10/03 13:09:42;;;;;;;;;;;;;;;;;;5052601;28;19955;-34
2022/10/03 13:12:07;;;;;;;;;;;;;;;;;;5040248;28;19916;-34
2022/10/03 13:14:32;;;;;;;;;;;;;;;;;;5043694;28;20003;-34
2022/10/03 13:16:58;;;;;;;;;;;;;;;;;;5038852;28;19916;-34
2022/10/03 13:19:26;;;;;;;;;;;;;;;;;;5040405;28;20194;-33
2022/10/03 13:21:51;;;;;;;;;;;;;;;;;;5041568;28;19919;-34
2022/10/03 13:24:19;;;;;;;;;;;;;;;;;;5041152;28;20284;-34
2022/10/03 13:26:44;;;;;;;;;;;;;;;;;;5040568;28;20610;-34
2022/10/03 13:29:12;;;;;;;;;;;;;;;;;;5042975;28;19916;-33
2022/10/03 13:31:37;;;;;;;;;;;;;;;;;;5039887;28;20062;-33
2022/10/03 13:34:02;;;;;;;;;;;;;;;;;;5039887;28;20773;-34
2022/10/03 13:36:28;;;;;;;;;;;;;;;;;;5042950;28;20356;-34
2022/10/03 13:38:54;;;;;;;;;;;;;;;;;;5043690;28;20102;-34
2022/10/03 13:41:19;;;;;;;;;;;;;;;;;;5039523;28;20655;-34
2022/10/03 13:43:45;;;;;;;;;;;;;;;;;;5041038;28;19916;-34
2022/10/03 13:46:10;;;;;;;;;;;;;;;;;;5037684;28;20293;-33
2022/10/03 13:48:35;;;;;;;;;;;;;;;;;;5042971;28;20306;-33
2022/10/03 13:51:01;;;;;;;;;;;;;;;;;;5041557;28;19978;-34
2022/10/03 13:53:26;;;;;;;;;;;;;;;;;;5044694;28;19917;-34
2022/10/03 13:55:51;;;;;;;;;;;;;;;;;;5043395;28;19916;-34
2022/10/03 13:58:16;;;;;;;;;;;;;;;;;;5042633;28;20306;-34
2022/10/03 14:00:42;;;;;;;;;;;;;;;;;;5044121;28;19916;-33
2022/10/03 14:03:07;;;;;;;;;;;;;;;;;;5049529;28;19917;-34
2022/10/03 14:05:32;;;;;;;;;;;;;;;;;;5042847;28;20039;-33
2022/10/03 14:07:57;;;;;;;;;;;;;;;;;;5043054;28;19916;-34
2022/10/03 14:10:25;;;;;;;;;;;;;;;;;;5041726;28;21814;-34
2022/10/03 14:12:50;;;;;;;;;;;;;;;;;;5044564;28;19917;-34
2022/10/03 14:15:17;;;;;;;;;;;;;;;;;;5043533;28;19913;-34
2022/10/03 14:17:42;;;;;;;;;;;;;;;;;;5042961;28;19917;-34
2022/10/03 14:20:07;;;;;;;;;;;;;;;;;;5042525;28;19913;-34
2022/10/03 14:22:32;;;;;;;;;;;;;;;;;;5046657;28;19939;-34
2022/10/03 14:24:58;;;;;;;;;;;;;;;;;;5044668;28;19916;-34
2022/10/03 14:27:23;;;;;;;;;;;;;;;;;;5041835;28;19916;-34
2022/10/03 14:29:48;;;;;;;;;;;;;;;;;;5040311;28;20013;-34
2022/10/03 14:32:13;;;;;;;;;;;;;;;;;;5042759;28;20317;-34
2022/10/03 14:34:38;;;;;;;;;;;;;;;;;;5041441;28;19924;-34
2022/10/03 14:37:04;;;;;;;;;;;;;;;;;;5042100;28;19916;-34
2022/10/03 14:39:31;;;;;;;;;;;;;;;;;;5043206;28;19916;-34
2022/10/03 14:41:56;;;;;;;;;;;;;;;;;;5038344;28;19917;-33
2022/10/03 14:44:21;;;;;;;;;;;;;;;;;;5042051;28;19923;-34
2022/10/03 14:46:46;;;;;;;;;;;;;;;;;;5045918;28;21378;-34
2022/10/03 14:49:12;;;;;;;;;;;;;;;;;;5046697;28;19923;-34
2022/10/03 14:51:37;;;;;;;;;;;;;;;;;;5048303;28;19917;-34
2022/10/03 14:54:04;;;;;;;;;;;;;;;;;;5048296;28;20236;-34
2022/10/03 14:56:29;;;;;;;;;;;;;;;;;;5046182;28;20016;-33
2022/10/03 14:58:54;;;;;;;;;;;;;;;;;;5047614;28;19985;-34
2022/10/03 15:01:20;;;;;;;;;;;;;;;;;;5049784;28;19917;-34
2022/10/03 15:03:45;;;;;;;;;;;;;;;;;;5048091;28;19932;-34
2022/10/03 15:06:11;;;;;;;;;;;;;;;;;;5045244;28;19921;-34
2022/10/03 15:08:37;;;;;;;;;;;;;;;;;;5041575;28;20484;-34
2022/10/03 15:11:02;;;;;;;;;;;;;;;;;;5043666;28;19931;-34
2022/10/03 15:13:27;;;;;;;;;;;;;;;;;;5039965;28;19916;-33
2022/10/03 15:15:54;;;;;;;;;;;;;;;;;;5046137;28;20441;-34
2022/10/03 15:18:19;;;;;;;;;;;;;;;;;;5044408;28;19916;-33
2022/10/03 15:20:44;;;;;;;;;;;;;;;;;;5043751;28;19965;-34
2022/10/03 15:23:10;;;;;;;;;;;;;;;;;;5043038;28;19917;-34
2022/10/03 15:25:36;;;;;;;;;;;;;;;;;;5044813;28;20016;-34
2022/10/03 15:28:01;;;;;;;;;;;;;;;;;;5042874;28;20027;-34
2022/10/03 15:30:26;;;;;;;;;;;;;;;;;;5044027;28;19921;-33
2022/10/03 15:32:51;;;;;;;;;;;;;;;;;;5047567;28;19961;-34
2022/10/03 15:35:17;;;;;;;;;;;;;;;;;;5042634;28;19927;-33
2022/10/03 15:37:42;;;;;;;;;;;;;;;;;;5043391;28;19920;-33
2022/10/03 15:40:08;;;;;;;;;;;;;;;;;;5042206;28;19926;-34
2022/10/03 15:42:33;;;;;;;;;;;;;;;;;;5040553;28;19963;-34
2022/10/03 15:44:58;;;;;;;;;;;;;;;;;;5037984;28;19960;-34
2022/10/03 15:47:26;;;;;;;;;;;;;;;;;;5038822;28;20262;-34
2022/10/03 15:49:53;;;;;;;;;;;;;;;;;;5039010;28;19948;-34
2022/10/03 15:52:18;;;;;;;;;;;;;;;;;;5040061;28;19921;-33
2022/10/03 15:54:43;;;;;;;;;;;;;;;;;;5041701;28;20382;-33
2022/10/03 15:57:08;;;;;;;;;;;;;;;;;;5043737;28;20456;-33
2022/10/03 15:59:34;;;;;;;;;;;;;;;;;;5039599;28;19924;-34
2022/10/03 16:01:59;;;;;;;;;;;;;;;;;;5040982;28;20332;-33
2022/10/03 16:04:24;;;;;;;;;;;;;;;;;;5043322;28;19920;-34
2022/10/03 16:06:50;;;;;;;;;;;;;;;;;;5043802;28;19917;-33
2022/10/03 16:09:15;;;;;;;;;;;;;;;;;;5040211;28;19928;-33
2022/10/03 16:11:40;;;;;;;;;;;;;;;;;;5042441;28;19946;-33
2022/10/03 16:14:06;;;;;;;;;;;;;;;;;;5038463;28;20060;-33
2022/10/03 16:16:31;;;;;;;;;;;;;;;;;;5037418;28;19917;-33
2022/10/03 16:18:56;;;;;;;;;;;;;;;;;;5053494;28;20526;-33
2022/10/03 16:21:21;;;;;;;;;;;;;;;;;;5039449;28;19921;-33
2022/10/03 16:23:46;;;;;;;;;;;;;;;;;;5039667;28;19970;-33
2022/10/03 16:26:12;;;;;;;;;;;;;;;;;;5040380;28;19931;-34
2022/10/03 16:28:38;;;;;;;;;;;;;;;;;;5041101;28;20063;-34
2022/10/03 16:31:03;;;;;;;;;;;;;;;;;;5043381;28;20336;-34
2022/10/03 16:33:29;;;;;;;;;;;;;;;;;;5041811;28;19916;-33
2022/10/03 16:35:55;;;;;;;;;;;;;;;;;;5043276;28;19958;-33
2022/10/03 16:38:20;;;;;;;;;;;;;;;;;;5044328;28;20302;-33
2022/10/03 16:40:45;;;;;;;;;;;;;;;;;;5042155;28;19916;-33
2022/10/03 16:43:11;;;;;;;;;;;;;;;;;;5047231;28;19998;-33